Terminal Aerodrome Forecast
Issued by NWS

Home | Current Version | Previous Version | Text Only | Print | Product List | Glossary On
Versions: 1 2 3 4 5 6 7 8 9 10 11 12 13 14 15 16 17 18 19 20 21 22 23 24 25
000
FTUS43 KMKX 230240 AAA
TAFUES
TAF AMD
KUES 230240Z 2303/2324 30004KT P6SM OVC120
      TEMPO 2303/2305 BKN030 OVC120
     FM230800 VRB03KT P6SM SCT200
     FM231800 23007KT P6SM BKN250
     FM232000 26008KT P6SM BKN130=

USA.gov is the U.S. government's official web portal to all federal, state and local government web resources and services.